Terminal Aerodrome Forecast
Issued by NWS Louisville, KY

Home | Current Version | Previous Version | Graphics & Text | Print | Product List | Glossary On
Versions: 1 2 3 4 5 6 7 8 9 10 11 12 13 14
000
FTUS43 KLMK 311728
TAFBWG
TAF
KBWG 311728Z 3118/0118 10005KT P6SM FEW060 BKN250
     FM010900 00000KT 4SM BR BKN200
     FM011300 22006KT P6SM BKN200=

USA.gov is the U.S. government's official web portal to all federal, state and local government web resources and services.